Weather observations for the past three days for
Harry Reid International Airport
Metric (Imperial)
Date Time (pdt) Wind (kph) Vis. (km) Weather Sky Cond. Temperature (ºC) Relative Humidity Wind Chill (°C) Heat Index (°C) Pressure Precipitation (cm)
Air Dwpt 6 hour altimeter (cm) sea level (mb) 1 hr 3 hr 6 hr
Max. Min.
06 02:56 S 11 16.09 A Few Clouds FEW180 28.3 5.6 24% 27 76 1010.2
06 01:56 S 7 16.09 Fair CLR 28.3 6.1 24% 27 76 1010.2
06 00:56 SW 13 16.09 Fair CLR 28.9 5 22% 27 76 1010.1
05 23:56 S 7 16.09 A Few Clouds FEW100 FEW180 29.4 4.4 20% 28 75.97 1010.0
05 22:56 SW 9 16.09 A Few Clouds FEW100 FEW180 30 4.4 35.6 30 20% 28 75.97 1010.1
05 21:56 SW 11 16.09 A Few Clouds FEW100 FEW180 31.1 4.4 18% 29 75.97 1010.2
05 20:56 SW 13 16.09 A Few Clouds FEW100 FEW180 32.2 4.4 17% 30 75.97 1009.9
05 19:56 SW 17 16.09 A Few Clouds FEW120 32.8 3.9 16% 31 75.92 1009.4
05 18:56 SW 26 G 39 16.09 A Few Clouds FEW120 FEW200 33.9 4.4 16% 32 75.9 1009.1
05 17:56 W 30 G 44 16.09 A Few Clouds FEW120 FEW200 35 3.3 14% 32 75.9 1009.1
05 16:56 W 26 G 50 16.09 A Few Clouds FEW120 FEW200 35.6 2.2 36.7 31.1 12% 33 75.9 1009.0
05 15:56 SW 37 G 52 16.09 A Few Clouds and Breezy FEW120 FEW200 36.7 0.6 10% 34 75.92 1009.1
05 14:56 SW 30 G 59 16.09 A Few Clouds FEW120 FEW200 36.1 0.6 10% 33 75.95 1009.5
05 13:56 SW 31 G 61 16.09 A Few Clouds FEW250 36.1 -1.1 9% 33 76 1010.1
05 12:56 SW 24 G 37 16.09 Fair CLR 35 -1.7 9% 32 76.02 1010.7
05 10:56 S 9 G 35 16.09 Fair CLR 31.1 0 31.1 24.4 13% 29 76.12 1012.1
05 09:56 S 19 G 31 16.09 Fair CLR 29.4 1.7 17% 28 76.12 1012.2
05 08:56 S 20 G 35 16.09 Fair CLR 27.2 3.3 21% 26 76.1 1011.9
05 07:56 S 20 G 33 16.09 Fair CLR 26.1 3.3 23% 26 76.1 1011.8
05 06:56 S 17 G 30 16.09 Fair CLR 25 3.3 24% 25 76.05 1011.2
05 05:56 S 15 16.09 Fair CLR 24.4 3.3 25% 25 76 1010.3
05 04:56 S 15 16.09 Fair CLR 25 3.9 28.9 25 26% 25 75.97 1010.1
05 03:56 S 20 G 35 16.09 A Few Clouds FEW200 FEW250 25.6 3.9 25% 25 75.97 1009.9
05 02:56 S 17 16.09 A Few Clouds FEW200 FEW250 26.1 3.9 24% 26 75.97 1009.8
05 01:56 S 11 16.09 A Few Clouds FEW250 26.7 3.3 22% 26 75.95 1009.7
05 00:56 SW 15 16.09 Partly Cloudy SCT250 27.8 3.3 21% 27 75.92 1009.5
04 23:56 S 13 G 31 16.09 Partly Cloudy SCT250 28.9 0 15% 27 75.87 1008.7
04 22:56 S 6 16.09 Partly Cloudy SCT250 28.9 0 35.6 28.9 15% 27 75.84 1008.4
04 21:56 SW 7 16.09 Partly Cloudy SCT250 29.4 -0.6 14% 28 75.82 1008.2
04 20:56 SW 15 16.09 A Few Clouds FEW250 31.1 -0.6 13% 29 75.79 1007.8
04 19:56 SW 17 16.09 A Few Clouds FEW250 31.7 -0.6 12% 30 75.74 1007.2
04 18:56 SW 22 16.09 A Few Clouds FEW250 32.8 -0.6 12% 30 75.72 1006.9
04 17:56 W 24 G 37 16.09 Fair CLR 34.4 -1.7 10% 32 75.72 1006.6
04 16:56 SW 19 G 39 16.09 Fair CLR 35.6 -1.7 36.1 31.1 9% 33 75.72 1006.6
04 15:56 SW 19 G 41 16.09 Fair CLR 35.6 -1.1 10% 33 75.72 1006.5
04 14:56 S 24 G 44 16.09 Fair CLR 35.6 -1.7 9% 33 75.74 1007.1
04 13:56 SW 26 G 35 16.09 Fair CLR 35 -0.6 10% 32 75.79 1007.6
04 12:56 SW 22 G 37 16.09 Fair CLR 33.3 0.6 12% 31 75.84 1008.4
04 11:56 S 26 G 44 16.09 Fair CLR 32.8 1.7 14% 30 75.92 1009.3
04 10:56 S 19 G 39 16.09 Fair CLR 31.1 2.2 31.1 23.9 16% 29 75.95 1009.8
04 09:56 S 22 G 41 16.09 Fair CLR 28.9 3.9 20% 27 75.95 1009.7
04 08:56 S 24 G 39 16.09 Fair CLR 27.2 5 24% 26 75.92 1009.5
04 07:56 S 19 G 39 16.09 Fair CLR 25.6 5.6 28% 26 75.9 1009.3
04 06:56 S 22 16.09 Fair CLR 24.4 5.6 30% 25 75.84 1008.5
04 05:56 S 11 16.09 Fair CLR 24.4 5.6 30% 25 75.82 1008.2
04 04:56 S 15 16.09 Fair CLR 25 5.6 28.9 25 29% 25 75.79 1007.6
04 03:56 S 17 G 28 16.09 Fair CLR 25.6 5.6 28% 26 75.74 1007.0
04 02:56 S 19 16.09 Fair CLR 25.6 5.6 28% 26 75.72 1006.6
04 01:56 S 17 16.09 Fair CLR 26.7 3.3 22% 26 75.72 1006.5
04 00:56 SE 9 16.09 Fair CLR 27.2 -0.6 16% 26 75.69 1006.4
03 23:56 S 11 16.09 Fair CLR 28.3 -2.8 13% 27 75.69 1006.1
03 22:56 SE 7 16.09 Fair CLR 28.3 -3.3 35 28.3 12% 27 75.64 1005.7
03 21:56 S 11 16.09 Fair CLR 29.4 -2.8 12% 28 75.67 1006.2
03 20:56 S 7 16.09 Fair CLR 30.6 -2.2 12% 29 75.67 1006.2
03 19:56 SW 19 16.09 Fair CLR 31.1 -2.2 11% 29 75.62 1005.6
03 18:56 SW 22 16.09 Fair CLR 32.2 -2.2 11% 30 75.62 1005.4
03 17:56 SW 22 G 39 16.09 Fair CLR 33.9 -2.2 10% 31 75.62 1005.3
03 16:56 SW 28 G 41 16.09 Fair CLR 35 -2.2 35.6 30 9% 32 75.62 1005.5
03 15:56 S 13 G 43 16.09 Fair CLR 35 -2.8 9% 32 75.67 1006.0
03 14:56 S 15 G 33 16.09 Fair CLR 34.4 -2.2 9% 32 75.72 1006.6
03 13:56 SW 28 G 39 16.09 Fair CLR 34.4 -1.1 10% 32 75.77 1007.3
03 12:56 SW 26 G 44 16.09 Fair CLR 33.3 -1.1 11% 31 75.79 1007.8
03 11:56 S 20 G 35 16.09 Fair CLR 31.7 -0.6 12% 30 75.87 1008.8
03 10:56 S 17 G 41 16.09 Fair CLR 30.6 -1.1 30.6 23.3 13% 29 75.92 1009.3
03 09:56 S 19 G 39 16.09 Fair CLR 28.9 0 15% 27 75.95 1009.8
03 08:56 S 26 G 43 16.09 Fair CLR 27.2 0 17% 26 75.92 1009.7
03 07:56 S 15 16.09 Fair CLR 25 0.6 20% 25 75.95 1009.9
03 06:56 S 17 16.09 A Few Clouds FEW150 23.3 0 21% 75.9 1009.3
03 05:56 S 28 G 43 16.09 Fair CLR 23.3 0 21% 75.87 1009.0
03 04:56 S 13 16.09 Fair CLR 23.9 -0.6 28.9 23.9 20% 24 75.87 1008.9
03 03:56 S 19 G 35 16.09 Fair CLR 25 -1.7 17% 25 75.9 1008.9
Date Time (pdt) Wind (kph) Vis. (km) Weather Sky Cond. Air Dwpt Max. Min. Relative Humidity Wind Chill (°C) Heat Index (°C) altimeter (cm) sea level (mb) 1 hr 3 hr 6 hr
6 hour
Temperature (ºC) Pressure Precipitation (cm)